Time;durP1;ratioP1;P1;durP2;ratioP2;P2;SDS_P1;SDS_P2;PMS_P1;PMS_P2;Temp;Humidity;BMP_temperature;BMP_pressure;BME280_temperature;BME280_humidity;BME280_pressure;Samples;Min_cycle;Max_cycle;Signal;HPM_P1;HPM_P2
2022/08/26 00:02:17;;;;;;;40.10;35.15;;;21.90;99.90;;;;;;5013947;28;20084;-78
2022/08/26 00:04:43;;;;;;;37.95;33.75;;;21.90;99.90;;;;;;5013643;28;20049;-77
2022/08/26 00:07:09;;;;;;;36.88;32.92;;;21.70;99.90;;;;;;4981182;28;20052;-77
2022/08/26 00:09:34;;;;;;;40.65;35.88;;;21.70;99.90;;;;;;4981400;28;20042;-77
2022/08/26 00:12:00;;;;;;;37.15;33.13;;;21.60;99.90;;;;;;4996955;28;20050;-77
2022/08/26 00:14:26;;;;;;;39.40;35.25;;;21.50;99.90;;;;;;5012746;28;20196;-78
2022/08/26 00:16:52;;;;;;;;;;;21.50;99.90;;;;;;4996935;28;20041;-78
2022/08/26 00:19:19;;;;;;;36.63;32.25;;;21.50;99.90;;;;;;5013489;28;20336;-77
2022/08/26 00:21:46;;;;;;;37.83;34.03;;;21.50;99.90;;;;;;5013352;28;20088;-77
2022/08/26 00:24:12;;;;;;;38.08;34.25;;;21.40;99.90;;;;;;4997183;28;20516;-77
2022/08/26 00:26:38;;;;;;;37.42;33.38;;;21.40;99.90;;;;;;4997107;28;20492;-77
2022/08/26 00:29:05;;;;;;;36.20;31.45;;;21.40;99.90;;;;;;5013262;28;20042;-77
2022/08/26 00:31:30;;;;;;;;;;;21.40;99.90;;;;;;5013940;28;20067;-78
2022/08/26 00:33:56;;;;;;;34.75;30.77;;;21.40;99.90;;;;;;5013024;28;20293;-77
2022/08/26 00:36:22;;;;;;;33.60;28.73;;;21.40;99.90;;;;;;5013324;28;20096;-78
2022/08/26 00:38:49;;;;;;;39.42;30.23;;;21.40;99.90;;;;;;5013247;28;20427;-78
2022/08/26 00:41:17;;;;;;;;;;;21.40;99.90;;;;;;5029749;28;20040;-77
2022/08/26 00:43:43;;;;;;;31.20;26.73;;;21.50;99.90;;;;;;5012949;28;19917;-77
2022/08/26 00:46:27;;;;;;;31.10;25.75;;;21.50;99.90;;;;;;5013080;28;20052;-78
2022/08/26 00:49:08;;;;;;;30.17;25.00;;;21.40;99.90;;;;;;5012732;28;20107;-78
2022/08/26 00:51:44;;;;;;;32.38;22.70;;;21.40;99.90;;;;;;5012705;28;20097;-77
2022/08/26 00:54:10;;;;;;;33.08;22.48;;;21.40;99.90;;;;;;5012493;28;20046;-77
2022/08/26 00:56:45;;;;;;;28.27;21.25;;;21.40;99.90;;;;;;5012602;28;20125;-77
2022/08/26 00:59:12;;;;;;;36.08;21.58;;;21.40;99.90;;;;;;5012715;28;20049;-77
2022/08/26 01:01:41;;;;;;;29.17;21.35;;;21.40;99.90;;;;;;5012837;28;20045;-77
2022/08/26 01:04:09;;;;;;;31.95;22.50;;;21.40;99.90;;;;;;5012650;28;20046;-77
2022/08/26 01:06:35;;;;;;;29.00;20.90;;;21.40;99.90;;;;;;5012199;28;20042;-77
2022/08/26 01:09:01;;;;;;;28.98;20.65;;;21.50;99.90;;;;;;4996147;28;20402;-77
2022/08/26 01:11:27;;;;;;;28.45;21.02;;;21.50;99.90;;;;;;5029184;28;20045;-77
2022/08/26 01:13:59;;;;;;;31.85;20.40;;;21.50;99.90;;;;;;4995693;28;20045;-77
2022/08/26 01:16:25;;;;;;;31.00;21.52;;;21.50;99.90;;;;;;5012278;28;20034;-77
2022/08/26 01:18:54;;;;;;;28.73;21.58;;;21.40;99.90;;;;;;4995799;28;20128;-77
2022/08/26 01:21:35;;;;;;;28.92;20.05;;;21.40;99.90;;;;;;5012412;28;20371;-77
2022/08/26 01:24:01;;;;;;;29.05;20.75;;;21.40;99.90;;;;;;4995779;28;20038;-77
2022/08/26 01:26:32;;;;;;;31.45;19.80;;;21.40;99.90;;;;;;5011856;28;20083;-77
2022/08/26 01:29:00;;;;;;;30.48;19.60;;;21.40;99.90;;;;;;5011831;28;20052;-77
2022/08/26 01:31:29;;;;;;;27.40;20.52;;;21.40;99.90;;;;;;5012046;28;20057;-77
2022/08/26 01:34:07;;;;;;;28.50;20.65;;;21.40;99.90;;;;;;5011527;28;20053;-77
2022/08/26 01:36:32;;;;;;;31.30;20.55;;;21.40;99.90;;;;;;4995868;28;20494;-78
2022/08/26 01:38:58;;;;;;;30.00;20.77;;;21.40;99.90;;;;;;4995483;28;20069;-78
2022/08/26 01:41:25;;;;;;;34.78;21.23;;;21.40;99.90;;;;;;5011601;28;20122;-77
2022/08/26 01:43:54;;;;;;;33.25;19.55;;;21.40;99.90;;;;;;5011437;28;20045;-77
2022/08/26 01:46:22;;;;;;;29.42;20.65;;;21.40;99.90;;;;;;5011597;28;20052;-77
2022/08/26 01:48:50;;;;;;;27.35;19.27;;;21.30;99.90;;;;;;5011451;28;20445;-77
2022/08/26 01:51:17;;;;;;;29.45;19.92;;;21.30;99.90;;;;;;5011531;28;20049;-78
2022/08/26 01:53:43;;;;;;;31.55;20.80;;;21.20;99.90;;;;;;5011677;28;20037;-77
2022/08/26 01:56:10;;;;;;;33.15;20.13;;;21.20;99.90;;;;;;5011328;28;20184;-77
2022/08/26 01:58:44;;;;;;;32.83;21.60;;;21.20;99.90;;;;;;5011452;28;20049;-77
2022/08/26 02:01:10;;;;;;;28.30;20.60;;;21.20;99.90;;;;;;5011702;28;20037;-77
2022/08/26 02:03:45;;;;;;;33.75;21.50;;;21.20;99.90;;;;;;5011473;28;20053;-77
2022/08/26 02:06:11;;;;;;;31.60;21.73;;;21.20;99.90;;;;;;5011704;28;20050;-77
2022/08/26 02:08:42;;;;;;;29.77;20.13;;;21.20;99.90;;;;;;4995328;28;20390;-77
2022/08/26 02:11:08;;;;;;;35.17;21.27;;;21.20;99.90;;;;;;5011809;28;20393;-77
2022/08/26 02:13:39;;;;;;;29.25;20.38;;;21.20;99.90;;;;;;4995375;28;20493;-78
2022/08/26 02:16:05;;;;;;;31.42;20.95;;;21.20;99.90;;;;;;5011426;28;20390;-77
2022/08/26 02:18:33;;;;;;;;;;;21.20;99.90;;;;;;5011801;28;20038;-77
2022/08/26 02:20:59;;;;;;;36.10;22.67;;;21.20;99.90;;;;;;5011562;28;20018;-77
2022/08/26 02:23:24;;;;;;;30.10;21.30;;;21.20;99.90;;;;;;5011228;28;20045;-77
2022/08/26 02:26:02;;;;;;;32.47;20.85;;;21.20;99.90;;;;;;5011010;28;20042;-77
2022/08/26 02:28:34;;;;;;;30.42;21.05;;;21.30;99.90;;;;;;5011275;28;20143;-77
2022/08/26 02:31:00;;;;;;;29.35;20.50;;;21.30;99.90;;;;;;5011132;28;20394;-77
2022/08/26 02:33:28;;;;;;;32.65;21.88;;;21.30;99.90;;;;;;4994724;28;20038;-77
2022/08/26 02:35:53;;;;;;;29.63;20.33;;;21.30;99.90;;;;;;5011065;28;20041;-77
2022/08/26 02:38:19;;;;;;;30.42;20.83;;;21.20;99.90;;;;;;5012442;28;20045;-77
2022/08/26 02:40:44;;;;;;;33.58;20.98;;;21.20;99.90;;;;;;5015253;28;20040;-77
2022/08/26 02:43:11;;;;;;;33.13;22.00;;;21.10;99.90;;;;;;4998802;28;20092;-77
2022/08/26 02:45:38;;;;;;;36.50;22.15;;;21.10;99.90;;;;;;5013225;28;20045;-77
2022/08/26 02:48:13;;;;;;;32.90;20.88;;;21.10;99.90;;;;;;5014322;28;20089;-77
2022/08/26 02:50:39;;;;;;;34.72;21.58;;;21.10;99.90;;;;;;5014594;28;20478;-77
2022/08/26 02:53:05;;;;;;;29.25;20.42;;;21.10;99.90;;;;;;5014966;28;20044;-77
2022/08/26 02:55:31;;;;;;;32.33;21.00;;;21.10;99.90;;;;;;5014980;28;20482;-77
2022/08/26 02:57:57;;;;;;;30.17;20.30;;;21.20;99.90;;;;;;4998340;28;20045;-77
2022/08/26 03:00:23;;;;;;;;;;;21.20;99.90;;;;;;5015085;28;20045;-77
2022/08/26 03:02:49;;;;;;;33.13;19.13;;;21.20;99.90;;;;;;5014729;28;20001;-77
2022/08/26 03:05:16;;;;;;;28.88;18.63;;;21.20;99.90;;;;;;5014934;28;20553;-77
2022/08/26 03:07:42;;;;;;;31.80;18.77;;;21.20;99.90;;;;;;5014653;28;20120;-77
2022/08/26 03:10:11;;;;;;;33.03;18.30;;;21.20;99.90;;;;;;5014475;28;20573;-77
2022/08/26 03:12:37;;;;;;;29.17;17.80;;;21.20;99.90;;;;;;5014861;28;20057;-77
2022/08/26 03:15:04;;;;;;;31.23;16.92;;;21.20;99.90;;;;;;4998053;28;20088;-77
2022/08/26 03:17:30;;;;;;;26.85;15.50;;;21.20;99.90;;;;;;4998492;28;20054;-77
2022/08/26 03:19:56;;;;;;;25.70;16.60;;;21.20;99.90;;;;;;4981910;28;20069;-77
2022/08/26 03:22:22;;;;;;;23.83;14.90;;;21.10;99.90;;;;;;5014612;28;20045;-77
2022/08/26 03:24:48;;;;;;;25.60;16.15;;;21.10;99.90;;;;;;5014669;28;20046;-77
2022/08/26 03:27:13;;;;;;;28.60;17.02;;;21.10;99.90;;;;;;5014413;28;20042;-77
2022/08/26 03:32:23;;;;;;;27.63;15.88;;;21.10;99.90;;;;;;5000509;28;20137;-77
2022/08/26 03:34:49;;;;;;;25.60;15.52;;;21.10;99.90;;;;;;4997800;28;20042;-77
2022/08/26 03:37:14;;;;;;;26.60;15.77;;;21.10;99.90;;;;;;5014302;28;20402;-77
2022/08/26 03:39:40;;;;;;;26.70;15.32;;;21.10;99.90;;;;;;5014386;28;20132;-77
2022/08/26 03:42:06;;;;;;;21.35;14.77;;;21.10;99.90;;;;;;5013997;28;20046;-77
2022/08/26 03:44:32;;;;;;;24.85;14.38;;;21.10;99.90;;;;;;5013989;28;20116;-78
2022/08/26 03:46:57;;;;;;;26.38;14.35;;;21.10;99.90;;;;;;5014150;28;20053;-77
2022/08/26 03:49:23;;;;;;;24.48;13.45;;;21.10;99.90;;;;;;5013720;28;20073;-77
2022/08/26 03:51:49;;;;;;;21.70;13.18;;;21.10;99.90;;;;;;5014313;28;20103;-77
2022/08/26 03:54:14;;;;;;;25.88;13.73;;;21.10;99.90;;;;;;4997470;28;20042;-77
2022/08/26 03:56:40;;;;;;;20.20;12.60;;;21.10;99.90;;;;;;5013578;28;20060;-77
2022/08/26 03:59:06;;;;;;;23.48;12.57;;;21.20;99.90;;;;;;5013775;28;20145;-77
2022/08/26 04:01:32;;;;;;;;;;;21.10;99.90;;;;;;4997744;28;20042;-77
2022/08/26 04:03:58;;;;;;;22.95;13.25;;;21.10;99.90;;;;;;5013511;28;20439;-77
2022/08/26 04:06:30;;;;;;;23.92;12.77;;;21.00;99.90;;;;;;4997145;28;20057;-77
2022/08/26 04:08:58;;;;;;;21.88;13.00;;;21.00;99.90;;;;;;5013398;28;20112;-77
2022/08/26 04:11:29;;;;;;;21.77;13.07;;;21.00;99.90;;;;;;5013469;28;20091;-77
2022/08/26 04:13:55;;;;;;;17.58;12.85;;;21.00;99.90;;;;;;5013440;28;20042;-77
2022/08/26 04:16:21;;;;;;;;;;;20.90;99.90;;;;;;5013988;28;20038;-77
2022/08/26 04:18:46;;;;;;;21.95;11.65;;;20.90;99.90;;;;;;5013348;28;19940;-77
2022/08/26 04:21:12;;;;;;;16.92;11.13;;;20.90;99.90;;;;;;5013384;28;20474;-77
2022/08/26 04:23:38;;;;;;;24.20;11.82;;;20.80;99.90;;;;;;4996859;28;20045;-77
2022/08/26 04:26:04;;;;;;;19.30;12.18;;;20.90;99.90;;;;;;5013253;28;20462;-77
2022/08/26 04:28:30;;;;;;;21.48;12.82;;;20.90;99.90;;;;;;5013016;28;20046;-77
2022/08/26 04:30:56;;;;;;;18.23;11.82;;;20.90;99.90;;;;;;5013252;28;20042;-77
2022/08/26 04:33:23;;;;;;;18.65;12.38;;;20.90;99.90;;;;;;5013032;28;20072;-77
2022/08/26 04:35:49;;;;;;;19.17;11.60;;;20.80;99.90;;;;;;4996821;28;20045;-77
2022/08/26 04:38:15;;;;;;;23.27;12.95;;;20.80;99.90;;;;;;5013356;28;20489;-77
2022/08/26 04:40:45;;;;;;;21.42;12.77;;;20.80;99.90;;;;;;5012921;28;20038;-77
2022/08/26 04:43:11;;;;;;;18.38;12.57;;;20.80;99.90;;;;;;5013028;28;20558;-77
2022/08/26 04:45:39;;;;;;;21.20;12.85;;;20.70;99.90;;;;;;5013173;28;20042;-77
2022/08/26 04:48:05;;;;;;;20.90;13.20;;;20.70;99.90;;;;;;5012973;28;20077;-78
2022/08/26 04:50:31;;;;;;;22.42;12.00;;;20.70;99.90;;;;;;5012603;28;20034;-77
2022/08/26 04:52:57;;;;;;;20.70;13.02;;;20.70;99.90;;;;;;5012487;28;20041;-77
2022/08/26 04:55:24;;;;;;;20.73;13.13;;;20.60;99.90;;;;;;5012698;28;20042;-77
2022/08/26 04:57:50;;;;;;;21.40;11.73;;;20.60;99.90;;;;;;5012567;28;20045;-77
2022/08/26 05:00:16;;;;;;;22.65;12.15;;;20.60;99.90;;;;;;4996242;28;20068;-77
2022/08/26 05:02:42;;;;;;;22.25;11.25;;;20.60;99.90;;;;;;5012405;28;20080;-77
2022/08/26 05:05:08;;;;;;;21.02;11.10;;;20.70;99.90;;;;;;5012238;28;20077;-77
2022/08/26 05:07:34;;;;;;;22.85;11.45;;;20.60;99.90;;;;;;5012804;28;20509;-77
2022/08/26 05:10:01;;;;;;;21.65;11.43;;;20.70;99.90;;;;;;5012035;28;20052;-77
2022/08/26 05:12:30;;;;;;;22.42;11.32;;;20.60;99.90;;;;;;4996181;28;20046;-77
2022/08/26 05:14:56;;;;;;;21.58;11.60;;;20.60;99.90;;;;;;5012353;28;20351;-77
2022/08/26 05:17:22;;;;;;;22.25;11.35;;;20.60;99.90;;;;;;5012611;28;20499;-77
2022/08/26 05:19:49;;;;;;;22.70;12.52;;;20.60;99.90;;;;;;5012330;28;20049;-77
2022/08/26 05:22:16;;;;;;;21.30;11.55;;;20.60;99.90;;;;;;5012382;28;20513;-77
2022/08/26 05:24:42;;;;;;;23.83;12.52;;;20.70;99.90;;;;;;5012371;28;20158;-77
2022/08/26 05:27:08;;;;;;;19.23;11.32;;;20.70;99.90;;;;;;5012066;28;20046;-77
2022/08/26 05:29:34;;;;;;;25.23;12.18;;;20.70;99.90;;;;;;5012288;28;20042;-77
2022/08/26 05:32:00;;;;;;;23.90;11.98;;;20.70;99.90;;;;;;4995680;28;20045;-77
2022/08/26 05:34:26;;;;;;;22.67;12.00;;;20.80;99.90;;;;;;5012027;28;20636;-77
2022/08/26 05:36:52;;;;;;;23.42;10.65;;;20.80;99.90;;;;;;5012079;28;20057;-77
2022/08/26 05:39:18;;;;;;;23.83;10.73;;;20.80;99.90;;;;;;5012003;28;20042;-77
2022/08/26 05:41:43;;;;;;;22.77;11.15;;;20.80;99.90;;;;;;5012015;28;20076;-77
2022/08/26 05:44:12;;;;;;;18.08;10.45;;;20.80;99.90;;;;;;4995307;28;20124;-78
2022/08/26 05:46:39;;;;;;;22.33;10.52;;;20.80;99.90;;;;;;4995685;28;20087;-77
2022/08/26 05:49:06;;;;;;;20.45;10.85;;;20.80;99.90;;;;;;4995174;28;20045;-77
2022/08/26 05:51:33;;;;;;;22.70;10.57;;;20.80;99.90;;;;;;5012098;28;20107;-77
2022/08/26 05:54:01;;;;;;;20.45;9.20;;;20.80;99.90;;;;;;4995093;28;20045;-77
2022/08/26 05:56:27;;;;;;;18.70;8.27;;;20.80;99.90;;;;;;5011331;28;20053;-77
2022/08/26 05:58:53;;;;;;;;;;;20.80;99.90;;;;;;5011954;28;20092;-78
2022/08/26 06:01:22;;;;;;;18.05;8.07;;;20.80;99.90;;;;;;5011474;28;19917;-78
2022/08/26 06:03:50;;;;;;;19.75;9.27;;;20.90;99.90;;;;;;4995266;28;20482;-78
2022/08/26 06:06:22;;;;;;;16.02;8.07;;;20.90;99.90;;;;;;5011476;28;20050;-78
2022/08/26 06:08:49;;;;;;;16.77;7.90;;;21.00;99.90;;;;;;4995243;28;20046;-78
2022/08/26 06:11:16;;;;;;;;;;;21.00;99.90;;;;;;5011595;28;20050;-78
2022/08/26 06:13:42;;;;;;;14.38;7.30;;;21.00;99.90;;;;;;5010607;28;19925;-77
2022/08/26 06:16:09;;;;;;;;;;;21.00;99.90;;;;;;5011886;28;20044;-77
2022/08/26 06:18:37;;;;;;;14.70;7.35;;;21.00;99.90;;;;;;5011296;28;19924;-77
2022/08/26 06:21:17;;;;;;;16.77;6.85;;;21.00;99.90;;;;;;5010979;28;20037;-78
2022/08/26 06:26:29;;;;;;;16.50;7.07;;;21.10;99.90;;;;;;5011337;28;20046;-77
2022/08/26 06:28:55;;;;;;;14.88;6.35;;;21.10;99.90;;;;;;5011214;28;20045;-77
2022/08/26 06:31:21;;;;;;;;;;;21.10;99.90;;;;;;4995180;28;20044;-78
2022/08/26 06:33:48;;;;;;;15.77;6.55;;;21.20;99.90;;;;;;4994786;28;19921;-77
2022/08/26 06:36:19;;;;;;;12.35;6.60;;;21.10;99.90;;;;;;4994681;28;20046;-77
2022/08/26 06:38:47;;;;;;;15.55;6.97;;;21.20;99.90;;;;;;5011318;28;20038;-77
2022/08/26 06:41:13;;;;;;;18.10;6.97;;;21.20;99.90;;;;;;5011207;28;20069;-77
2022/08/26 06:43:39;;;;;;;;;;;21.20;99.90;;;;;;4995486;28;20049;-77
2022/08/26 06:46:07;;;;;;;14.30;6.57;;;21.20;99.90;;;;;;5010785;28;19992;-78
2022/08/26 06:48:33;;;;;;;17.45;6.53;;;21.20;99.90;;;;;;4994777;28;20136;-78
2022/08/26 06:51:07;;;;;;;15.32;5.70;;;21.20;99.90;;;;;;5011200;28;20184;-78
2022/08/26 06:53:34;;;;;;;12.85;6.15;;;21.10;99.90;;;;;;5011124;28;20073;-78
2022/08/26 06:56:05;;;;;;;13.80;5.40;;;21.10;99.90;;;;;;5010783;28;20058;-78
2022/08/26 06:58:31;;;;;;;14.98;5.65;;;21.10;99.90;;;;;;5011492;28;20401;-78
2022/08/26 07:00:57;;;;;;;14.13;5.35;;;21.10;99.90;;;;;;5010654;28;20146;-78
2022/08/26 07:03:23;;;;;;;15.02;5.90;;;21.20;99.90;;;;;;4994400;28;20129;-78
2022/08/26 07:05:48;;;;;;;13.20;5.40;;;21.10;99.90;;;;;;5010835;28;20042;-78
2022/08/26 07:08:15;;;;;;;12.43;5.03;;;21.20;99.90;;;;;;4994737;28;20042;-78
2022/08/26 07:10:41;;;;;;;11.95;5.05;;;21.20;99.90;;;;;;5011361;28;20080;-78
2022/08/26 07:13:07;;;;;;;;;;;21.20;99.90;;;;;;5011063;28;20041;-78
2022/08/26 07:15:34;;;;;;;14.23;5.28;;;21.20;99.90;;;;;;5010793;28;19921;-78
2022/08/26 07:18:01;;;;;;;12.13;5.45;;;21.20;99.90;;;;;;4994470;28;20038;-78
2022/08/26 07:20:27;;;;;;;13.07;4.88;;;21.20;99.90;;;;;;5011230;28;20073;-78
2022/08/26 07:22:53;;;;;;;14.00;4.47;;;21.20;99.90;;;;;;5010314;28;20091;-78
2022/08/26 07:25:19;;;;;;;16.58;5.43;;;21.20;99.90;;;;;;5013181;28;20477;-78
2022/08/26 07:27:45;;;;;;;15.55;5.63;;;21.20;99.90;;;;;;5014512;28;20689;-78
2022/08/26 07:30:11;;;;;;;12.13;4.28;;;21.20;99.90;;;;;;5014612;28;20045;-78
2022/08/26 07:32:37;;;;;;;13.07;4.80;;;21.20;99.90;;;;;;5014566;28;20046;-78
2022/08/26 07:35:04;;;;;;;10.60;4.65;;;21.20;99.90;;;;;;5014358;28;20104;-78
2022/08/26 07:37:31;;;;;;;12.82;4.80;;;21.30;99.90;;;;;;5014685;28;20139;-78
2022/08/26 07:39:56;;;;;;;10.93;3.85;;;21.30;99.90;;;;;;5014054;28;20049;-78
2022/08/26 07:42:22;;;;;;;12.20;4.22;;;21.30;99.90;;;;;;5033821;28;20053;-78
2022/08/26 07:44:48;;;;;;;16.17;4.00;;;21.30;99.90;;;;;;5033782;28;20081;-78
2022/08/26 07:47:15;;;;;;;11.85;3.70;;;21.30;99.90;;;;;;5033811;28;20049;-78
2022/08/26 07:49:40;;;;;;;;;;;21.40;99.90;;;;;;5034571;28;20549;-78
2022/08/26 07:52:07;;;;;;;9.68;3.30;;;21.30;99.90;;;;;;5034038;28;19981;-78
2022/08/26 07:54:33;;;;;;;13.73;3.00;;;21.30;99.90;;;;;;5017122;28;20060;-78
2022/08/26 07:57:00;;;;;;;10.93;3.03;;;21.30;99.90;;;;;;5030548;28;20076;-79
2022/08/26 07:59:26;;;;;;;8.73;2.63;;;21.40;99.90;;;;;;4982012;28;20129;-79
2022/08/26 08:01:51;;;;;;;8.02;2.22;;;21.40;99.90;;;;;;4997031;28;20482;-79
2022/08/26 08:04:18;;;;;;;9.18;1.95;;;21.40;99.90;;;;;;5016866;28;20037;-79
2022/08/26 08:06:45;;;;;;;11.27;2.85;;;21.40;99.90;;;;;;5032741;28;20128;-79
2022/08/26 08:09:12;;;;;;;6.75;2.10;;;21.40;99.90;;;;;;5032310;28;20037;-79
2022/08/26 08:11:38;;;;;;;7.38;2.00;;;21.40;99.90;;;;;;5033005;28;20061;-79
2022/08/26 08:14:04;;;;;;;13.00;2.35;;;21.30;99.90;;;;;;5015629;28;20054;-79
2022/08/26 08:16:30;;;;;;;7.88;2.70;;;21.40;99.90;;;;;;5027153;28;20160;-79
2022/08/26 08:18:55;;;;;;;12.43;2.10;;;21.40;99.90;;;;;;5012853;28;20042;-79
2022/08/26 08:21:23;;;;;;;8.43;1.95;;;21.40;99.90;;;;;;5025387;28;20056;-79
2022/08/26 08:23:50;;;;;;;7.95;2.25;;;21.50;99.90;;;;;;5032459;28;20132;-80
2022/08/26 08:26:16;;;;;;;10.27;1.88;;;21.50;99.90;;;;;;5028785;28;20136;-79
2022/08/26 08:28:41;;;;;;;11.10;2.50;;;21.60;99.90;;;;;;5014417;28;20085;-79
2022/08/26 08:31:07;;;;;;;10.48;2.45;;;21.70;99.90;;;;;;5015653;28;20045;-79
2022/08/26 08:33:34;;;;;;;9.15;2.65;;;21.70;99.90;;;;;;5032722;28;20041;-79
2022/08/26 08:36:00;;;;;;;13.85;2.40;;;21.70;99.90;;;;;;5031107;28;20037;-79
2022/08/26 08:38:26;;;;;;;9.95;2.00;;;21.70;99.90;;;;;;5032300;28;20080;-80
2022/08/26 08:40:52;;;;;;;7.72;2.25;;;21.60;99.90;;;;;;5032075;28;20084;-79
2022/08/26 08:43:38;;;;;;;9.88;1.83;;;21.60;99.90;;;;;;5032024;28;20049;-79
2022/08/26 08:46:09;;;;;;;6.10;1.52;;;21.60;99.90;;;;;;5032219;28;20512;-79
2022/08/26 08:48:37;;;;;;;10.38;2.00;;;21.60;99.90;;;;;;5025457;28;20025;-79
2022/08/26 08:51:09;;;;;;;9.60;1.63;;;21.50;99.90;;;;;;5022367;28;20485;-79
2022/08/26 08:53:42;;;;;;;7.30;1.58;;;21.60;99.90;;;;;;5020455;28;20077;-78
2022/08/26 08:56:27;;;;;;;7.63;1.73;;;21.60;99.90;;;;;;5015262;28;20141;-78
2022/08/26 08:58:58;;;;;;;7.25;1.40;;;21.70;99.90;;;;;;5014802;28;20046;-79
2022/08/26 09:01:50;;;;;;;7.03;1.80;;;21.60;99.90;;;;;;5011842;28;20474;-79
2022/08/26 09:04:21;;;;;;;7.75;1.40;;;21.70;99.90;;;;;;4995287;28;20060;-79
2022/08/26 09:06:51;;;;;;;6.90;1.95;;;21.80;99.90;;;;;;5012663;28;20374;-79
2022/08/26 09:09:29;;;;;;;6.22;1.73;;;21.70;99.90;;;;;;5012497;28;20381;-79
2022/08/26 09:11:57;;;;;;;9.13;2.10;;;21.70;99.90;;;;;;5013816;28;20046;-79
2022/08/26 09:14:24;;;;;;;6.85;1.90;;;21.70;99.90;;;;;;5016067;28;20045;-79
2022/08/26 09:17:15;;;;;;;7.75;1.90;;;21.60;99.90;;;;;;5032511;28;20542;-78
2022/08/26 09:19:48;;;;;;;7.55;2.22;;;21.50;99.90;;;;;;5032554;28;20052;-79
2022/08/26 09:22:30;;;;;;;6.38;1.80;;;21.50;99.90;;;;;;5031796;28;20048;-78
2022/08/26 09:24:56;;;;;;;7.57;1.83;;;21.40;99.90;;;;;;5031963;28;20128;-78
2022/08/26 09:27:55;;;;;;;5.20;1.55;;;21.40;99.90;;;;;;5032213;28;20516;-79
2022/08/26 09:30:28;;;;;;;9.73;2.10;;;21.40;99.90;;;;;;4993512;28;20057;-79
2022/08/26 09:33:08;;;;;;;5.63;1.67;;;21.40;99.90;;;;;;5031945;28;20045;-79
2022/08/26 09:35:42;;;;;;;7.80;1.90;;;21.50;99.90;;;;;;5031743;28;21157;-78
2022/08/26 09:38:32;;;;;;;10.15;2.10;;;21.60;99.90;;;;;;5031704;28;20595;-79
2022/08/26 09:41:05;;;;;;;6.80;1.92;;;21.60;99.90;;;;;;5031738;28;20509;-79
2022/08/26 09:43:31;;;;;;;8.45;2.05;;;21.60;99.90;;;;;;5031764;28;20049;-79
2022/08/26 09:46:23;;;;;;;5.90;1.70;;;21.70;99.90;;;;;;5015052;28;20061;-79
2022/08/26 09:48:48;;;;;;;7.63;1.95;;;21.70;99.90;;;;;;5011894;28;20046;-79
2022/08/26 09:51:30;;;;;;;5.82;1.58;;;21.70;99.90;;;;;;5012066;28;20505;-79
2022/08/26 09:53:59;;;;;;;8.02;2.00;;;21.80;99.90;;;;;;5011594;28;20042;-79
2022/08/26 09:56:26;;;;;;;9.20;2.10;;;21.80;99.90;;;;;;4995292;28;20572;-79
2022/08/26 09:58:52;;;;;;;6.68;1.95;;;21.90;99.90;;;;;;5011474;28;20073;-79
2022/08/26 10:01:32;;;;;;;9.48;2.30;;;21.80;99.90;;;;;;5011627;28;20101;-79
2022/08/26 10:04:11;;;;;;;7.38;2.33;;;21.80;99.90;;;;;;5028260;28;20390;-79
2022/08/26 10:06:53;;;;;;;11.50;1.90;;;21.80;99.90;;;;;;5042718;28;20041;-79
2022/08/26 10:09:19;;;;;;;9.88;2.25;;;21.80;99.90;;;;;;5031086;28;20038;-79
2022/08/26 10:11:46;;;;;;;9.05;1.83;;;21.80;99.90;;;;;;5031602;28;20146;-79
2022/08/26 10:14:23;;;;;;;6.35;1.30;;;21.80;99.90;;;;;;5031362;28;20514;-79
2022/08/26 10:16:51;;;;;;;6.72;2.10;;;21.80;99.90;;;;;;5030970;28;20080;-79
2022/08/26 10:19:36;;;;;;;7.20;1.70;;;21.80;99.90;;;;;;5031210;28;20120;-79
2022/08/26 10:22:06;;;;;;;8.88;1.83;;;21.90;99.90;;;;;;5014927;28;20548;-78
2022/08/26 10:24:48;;;;;;;7.93;1.52;;;21.90;99.90;;;;;;5030669;28;20057;-79
2022/08/26 10:27:38;;;;;;;12.57;2.00;;;21.80;99.90;;;;;;5031301;28;20594;-79
2022/08/26 10:30:11;;;;;;;9.50;1.77;;;21.90;99.90;;;;;;5031009;28;20474;-78
2022/08/26 10:32:53;;;;;;;7.97;1.80;;;21.90;99.90;;;;;;5031016;28;20059;-79
2022/08/26 10:35:20;;;;;;;8.73;1.70;;;21.80;99.90;;;;;;5031126;28;20505;-79
2022/08/26 10:37:54;;;;;;;7.05;1.85;;;21.80;99.90;;;;;;5031137;28;20482;-79
2022/08/26 10:40:29;;;;;;;7.53;1.63;;;21.80;99.90;;;;;;5030494;28;20044;-79
2022/08/26 10:43:11;;;;;;;9.90;2.00;;;21.80;99.90;;;;;;5030566;28;20139;-79
2022/08/26 10:45:42;;;;;;;9.27;1.88;;;21.80;99.90;;;;;;5014395;28;20128;-79
2022/08/26 10:48:23;;;;;;;9.75;1.90;;;21.70;99.90;;;;;;5030477;28;20123;-79
2022/08/26 10:50:49;;;;;;;8.90;1.85;;;21.80;99.90;;;;;;5031250;28;20478;-79
2022/08/26 10:53:21;;;;;;;;;;;21.80;99.90;;;;;;5031071;28;20037;-79
2022/08/26 10:56:08;;;;;;;6.15;1.50;;;21.80;99.90;;;;;;5030298;28;19928;-79
2022/08/26 10:58:47;;;;;;;5.68;1.60;;;21.80;99.90;;;;;;5011015;28;20114;-79
2022/08/26 11:01:41;;;;;;;4.50;1.02;;;21.80;99.90;;;;;;4998774;28;20125;-79
2022/08/26 11:04:36;;;;;;;4.40;1.60;;;21.80;99.90;;;;;;5014678;28;20049;-79
2022/08/26 11:07:56;;;;;;;7.38;1.80;;;21.70;99.90;;;;;;5014763;28;20045;-79
2022/08/26 11:10:21;;;;;;;6.65;1.90;;;21.80;99.90;;;;;;5017001;28;20054;-79
2022/08/26 11:12:56;;;;;;;6.68;1.92;;;21.70;99.90;;;;;;5014900;28;20104;-78
2022/08/26 11:15:26;;;;;;;8.90;2.05;;;21.70;99.90;;;;;;5014549;28;20046;-79
2022/08/26 11:17:54;;;;;;;8.27;1.70;;;21.80;99.90;;;;;;5001076;28;20392;-79
2022/08/26 11:20:34;;;;;;;9.23;2.22;;;21.90;99.90;;;;;;5034469;28;20041;-79
2022/08/26 11:23:12;;;;;;;6.20;1.65;;;22.00;99.90;;;;;;5017594;28;20377;-79
2022/08/26 11:26:10;;;;;;;6.55;2.00;;;22.10;99.90;;;;;;5018303;28;20041;-79
2022/08/26 11:28:45;;;;;;;8.82;2.10;;;22.10;99.90;;;;;;5023031;28;20069;-79
2022/08/26 11:31:30;;;;;;;7.35;1.95;;;22.00;99.90;;;;;;5033913;28;20044;-79
2022/08/26 11:34:00;;;;;;;6.28;1.50;;;22.00;99.90;;;;;;5033605;28;20493;-79
2022/08/26 11:36:46;;;;;;;8.35;2.13;;;21.90;99.90;;;;;;5033796;28;20068;-79
2022/08/26 11:39:22;;;;;;;7.25;2.05;;;21.70;99.90;;;;;;5032460;28;20049;-79
2022/08/26 11:41:51;;;;;;;6.65;1.65;;;21.60;99.90;;;;;;5033341;28;20052;-79
2022/08/26 11:44:38;;;;;;;8.13;1.90;;;21.60;99.90;;;;;;5033107;28;20048;-79
2022/08/26 11:47:06;;;;;;;7.22;1.70;;;21.60;99.90;;;;;;5017267;28;20068;-79
2022/08/26 11:49:33;;;;;;;6.75;1.98;;;21.50;99.90;;;;;;5017448;28;20049;-79
2022/08/26 11:52:14;;;;;;;6.30;1.75;;;21.40;99.90;;;;;;5033344;28;20083;-79
2022/08/26 11:54:57;;;;;;;5.35;1.70;;;21.30;99.90;;;;;;5033340;28;20053;-79
2022/08/26 11:57:23;;;;;;;9.63;1.80;;;21.30;99.90;;;;;;5033423;28;20050;-79
2022/08/26 11:59:49;;;;;;;4.70;1.40;;;21.30;99.90;;;;;;5033704;28;20046;-79
2022/08/26 12:02:16;;;;;;;7.30;1.73;;;21.30;99.90;;;;;;5017075;28;20037;-79
2022/08/26 12:04:45;;;;;;;4.70;1.63;;;21.30;99.90;;;;;;5033371;28;20071;-79
2022/08/26 12:07:11;;;;;;;7.10;1.60;;;21.30;99.90;;;;;;5033527;28;20122;-79
2022/08/26 12:09:59;;;;;;;4.82;1.15;;;21.30;99.90;;;;;;5033594;28;20052;-79
2022/08/26 12:12:31;;;;;;;7.88;1.98;;;21.40;99.90;;;;;;5033113;28;20435;-79
2022/08/26 12:15:13;;;;;;;6.57;1.50;;;21.40;99.90;;;;;;5016639;28;20102;-79
2022/08/26 12:17:39;;;;;;;9.48;2.47;;;21.40;99.90;;;;;;5033301;28;20041;-79
2022/08/26 12:20:15;;;;;;;;;;;21.50;99.90;;;;;;5033578;28;20037;-82
2022/08/26 12:22:42;;;;;;;6.93;1.50;;;21.50;99.90;;;;;;5033233;28;19964;-83
2022/08/26 12:25:09;;;;;;;8.80;1.67;;;21.40;99.90;;;;;;5000052;28;20083;-84
2022/08/26 12:27:44;;;;;;;6.30;1.48;;;21.30;99.90;;;;;;5032862;28;20049;-83
2022/08/26 12:30:14;;;;;;;5.93;1.45;;;21.30;99.90;;;;;;5016299;28;20516;-82
2022/08/26 12:33:03;;;;;;;7.68;2.00;;;21.30;99.90;;;;;;5032782;28;20048;-83
2022/08/26 12:35:29;;;;;;;6.15;1.20;;;21.30;99.90;;;;;;5016511;28;20053;-83
2022/08/26 12:37:56;;;;;;;6.22;1.48;;;21.30;99.90;;;;;;4993218;28;20041;-82
2022/08/26 12:40:27;;;;;;;5.35;1.25;;;21.30;99.90;;;;;;5019856;28;20052;-82
2022/08/26 12:42:55;;;;;;;7.22;1.50;;;21.20;99.90;;;;;;5012524;28;20029;-82
2022/08/26 12:45:33;;;;;;;4.35;1.17;;;21.10;99.90;;;;;;4996014;28;20077;-82
2022/08/26 12:48:05;;;;;;;4.70;1.30;;;21.30;99.90;;;;;;5031630;28;20037;-83
2022/08/26 12:50:37;;;;;;;4.47;1.23;;;21.30;99.90;;;;;;5015551;28;20045;-82
2022/08/26 12:53:09;;;;;;;7.15;1.33;;;21.30;99.90;;;;;;5014945;28;20064;-82
2022/08/26 12:55:46;;;;;;;4.57;0.93;;;21.30;99.90;;;;;;5031517;28;20045;-83
2022/08/26 12:58:15;;;;;;;5.47;1.20;;;21.40;99.90;;;;;;5031602;28;20197;-83
2022/08/26 13:00:46;;;;;;;6.47;1.48;;;21.50;99.90;;;;;;5031700;28;20041;-82